sensor_id;sensor_type;location;lat;lon;timestamp;temperature;humidity
21799;DHT22;24973;47.178;15.316;2024-02-26T03:41:18;-0.30;99.90
21799;DHT22;24973;47.178;15.316;2024-02-26T03:44:07;-0.20;99.90
21799;DHT22;24973;47.178;15.316;2024-02-26T03:46:58;-0.30;99.90
21799;DHT22;24973;47.178;15.316;2024-02-26T03:49:47;-0.30;99.90
21799;DHT22;24973;47.178;15.316;2024-02-26T03:55:25;-0.30;99.90
21799;DHT22;24973;47.178;15.316;2024-02-26T03:58:14;-0.40;99.90
21799;DHT22;24973;47.178;15.316;2024-02-26T04:03:54;-0.40;99.90
21799;DHT22;24973;47.178;15.316;2024-02-26T04:06:44;-0.40;99.90
21799;DHT22;24973;47.178;15.316;2024-02-26T04:09:34;-0.30;99.90
21799;DHT22;24973;47.178;15.316;2024-02-26T04:12:23;-0.50;99.90
21799;DHT22;24973;47.178;15.316;2024-02-26T04:15:11;-0.60;99.90
21799;DHT22;24973;47.178;15.316;2024-02-26T04:20:51;-0.60;99.90
21799;DHT22;24973;47.178;15.316;2024-02-26T04:23:40;-0.60;99.90
21799;DHT22;24973;47.178;15.316;2024-02-26T04:26:30;-0.60;99.90
21799;DHT22;24973;47.178;15.316;2024-02-26T04:29:19;-0.50;99.90
21799;DHT22;24973;47.178;15.316;2024-02-26T04:32:08;-0.50;99.90
21799;DHT22;24973;47.178;15.316;2024-02-26T04:37:47;-0.80;99.90
21799;DHT22;24973;47.178;15.316;2024-02-26T04:43:25;-1.00;99.90
21799;DHT22;24973;47.178;15.316;2024-02-26T04:46:14;-0.10;99.90
21799;DHT22;24973;47.178;15.316;2024-02-26T04:49:03;-0.80;99.90
21799;DHT22;24973;47.178;15.316;2024-02-26T04:51:52;-0.80;99.90
21799;DHT22;24973;47.178;15.316;2024-02-26T04:54:42;-0.80;99.90
21799;DHT22;24973;47.178;15.316;2024-02-26T04:57:31;-0.80;99.90
21799;DHT22;24973;47.178;15.316;2024-02-26T05:03:09;-0.90;99.90
21799;DHT22;24973;47.178;15.316;2024-02-26T05:06:00;-0.90;99.90
21799;DHT22;24973;47.178;15.316;2024-02-26T13:27:45;14.40;73.90
21799;DHT22;24973;47.178;15.316;2024-02-26T13:30:37;14.00;74.40
21799;DHT22;24973;47.178;15.316;2024-02-26T13:33:28;13.40;75.30
21799;DHT22;24973;47.178;15.316;2024-02-26T13:36:17;13.00;77.50
21799;DHT22;24973;47.178;15.316;2024-02-26T13:39:09;12.30;93.10
21799;DHT22;24973;47.178;15.316;2024-02-26T13:42:01;12.20;78.30
21799;DHT22;24973;47.178;15.316;2024-02-26T13:44:51;12.00;79.80
21799;DHT22;24973;47.178;15.316;2024-02-26T13:47:41;11.90;80.70
21799;DHT22;24973;47.178;15.316;2024-02-26T13:50:30;11.80;81.20
21799;DHT22;24973;47.178;15.316;2024-02-26T13:53:20;11.30;80.90
21799;DHT22;24973;47.178;15.316;2024-02-26T13:56:15;11.60;82.00
21799;DHT22;24973;47.178;15.316;2024-02-26T13:59:04;11.70;94.60
21799;DHT22;24973;47.178;15.316;2024-02-26T14:01:57;11.60;83.50
21799;DHT22;24973;47.178;15.316;2024-02-26T14:04:49;12.10;83.50
21799;DHT22;24973;47.178;15.316;2024-02-26T14:07:38;11.50;81.40
21799;DHT22;24973;47.178;15.316;2024-02-26T14:10:28;11.50;83.70
21799;DHT22;24973;47.178;15.316;2024-02-26T14:13:17;11.40;83.60
21799;DHT22;24973;47.178;15.316;2024-02-26T14:16:07;11.40;82.40
21799;DHT22;24973;47.178;15.316;2024-02-26T14:18:59;11.20;94.80
21799;DHT22;24973;47.178;15.316;2024-02-26T14:21:48;11.20;82.40
21799;DHT22;24973;47.178;15.316;2024-02-26T14:24:37;11.20;83.00
21799;DHT22;24973;47.178;15.316;2024-02-26T14:27:27;11.20;82.70
21799;DHT22;24973;47.178;15.316;2024-02-26T14:30:16;11.00;82.40
21799;DHT22;24973;47.178;15.316;2024-02-26T14:33:06;11.20;84.10
21799;DHT22;24973;47.178;15.316;2024-02-26T14:35:58;11.20;83.70
21799;DHT22;24973;47.178;15.316;2024-02-26T14:38:48;11.20;84.20
21799;DHT22;24973;47.178;15.316;2024-02-26T14:41:37;11.20;84.90
21799;DHT22;24973;47.178;15.316;2024-02-26T14:44:27;12.00;85.10
21799;DHT22;24973;47.178;15.316;2024-02-26T14:47:16;11.30;85.20
21799;DHT22;24973;47.178;15.316;2024-02-26T14:50:06;11.20;84.70
21799;DHT22;24973;47.178;15.316;2024-02-26T14:52:57;11.10;82.90
21799;DHT22;24973;47.178;15.316;2024-02-26T14:55:47;11.10;84.50
21799;DHT22;24973;47.178;15.316;2024-02-26T14:58:36;11.10;85.00
21799;DHT22;24973;47.178;15.316;2024-02-26T15:01:26;11.10;85.40
21799;DHT22;24973;47.178;15.316;2024-02-26T15:04:15;11.20;85.00
21799;DHT22;24973;47.178;15.316;2024-02-26T15:07:05;11.20;85.70
21799;DHT22;24973;47.178;15.316;2024-02-26T15:09:56;11.20;86.20
21799;DHT22;24973;47.178;15.316;2024-02-26T15:12:46;11.10;85.10
21799;DHT22;24973;47.178;15.316;2024-02-26T15:15:37;11.10;85.90
21799;DHT22;24973;47.178;15.316;2024-02-26T15:18:29;11.10;84.50
21799;DHT22;24973;47.178;15.316;2024-02-26T15:21:18;11.10;86.20
21799;DHT22;24973;47.178;15.316;2024-02-26T15:24:11;11.10;84.80
21799;DHT22;24973;47.178;15.316;2024-02-26T15:27:05;11.90;86.40
21799;DHT22;24973;47.178;15.316;2024-02-26T15:29:55;11.00;85.70
21799;DHT22;24973;47.178;15.316;2024-02-26T15:32:47;11.00;84.60
21799;DHT22;24973;47.178;15.316;2024-02-26T15:35:36;11.00;85.00
21799;DHT22;24973;47.178;15.316;2024-02-26T15:38:25;11.00;86.20
21799;DHT22;24973;47.178;15.316;2024-02-26T15:41:14;11.00;88.70
21799;DHT22;24973;47.178;15.316;2024-02-26T15:44:06;10.90;85.60
21799;DHT22;24973;47.178;15.316;2024-02-26T15:46:55;10.90;87.70
21799;DHT22;24973;47.178;15.316;2024-02-26T15:49:44;10.90;89.20
21799;DHT22;24973;47.178;15.316;2024-02-26T15:52:34;10.80;89.30
21799;DHT22;24973;47.178;15.316;2024-02-26T15:55:23;10.80;90.70
21799;DHT22;24973;47.178;15.316;2024-02-26T15:58:12;10.70;91.20
21799;DHT22;24973;47.178;15.316;2024-02-26T16:01:05;10.60;91.70
21799;DHT22;24973;47.178;15.316;2024-02-26T16:03:55;10.60;91.90
21799;DHT22;24973;47.178;15.316;2024-02-26T16:06:47;10.50;92.10
21799;DHT22;24973;47.178;15.316;2024-02-26T16:09:40;10.40;92.10
21799;DHT22;24973;47.178;15.316;2024-02-26T16:12:35;10.30;90.20
21799;DHT22;24973;47.178;15.316;2024-02-26T16:15:26;10.20;92.60
21799;DHT22;24973;47.178;15.316;2024-02-26T16:18:17;10.10;92.80
21799;DHT22;24973;47.178;15.316;2024-02-26T16:21:07;10.10;92.90
21799;DHT22;24973;47.178;15.316;2024-02-26T16:23:56;10.80;93.40
21799;DHT22;24973;47.178;15.316;2024-02-26T16:26:46;10.00;93.50
21799;DHT22;24973;47.178;15.316;2024-02-26T16:29:35;9.90;93.80
21799;DHT22;24973;47.178;15.316;2024-02-26T16:32:25;9.80;99.90
21799;DHT22;24973;47.178;15.316;2024-02-26T16:35:15;9.70;94.60
21799;DHT22;24973;47.178;15.316;2024-02-26T16:38:04;9.60;92.70
21799;DHT22;24973;47.178;15.316;2024-02-26T16:40:53;9.60;93.40
21799;DHT22;24973;47.178;15.316;2024-02-26T16:43:43;9.60;94.20
21799;DHT22;24973;47.178;15.316;2024-02-26T16:46:33;9.50;93.50
21799;DHT22;24973;47.178;15.316;2024-02-26T16:49:22;10.50;99.90
21799;DHT22;24973;47.178;15.316;2024-02-26T16:52:13;9.40;94.50
21799;DHT22;24973;47.178;15.316;2024-02-26T16:55:04;9.20;99.90
21799;DHT22;24973;47.178;15.316;2024-02-26T16:57:54;9.20;95.90
21799;DHT22;24973;47.178;15.316;2024-02-26T17:00:44;10.40;95.30
21799;DHT22;24973;47.178;15.316;2024-02-26T17:03:33;9.10;93.50
21799;DHT22;24973;47.178;15.316;2024-02-26T17:06:25;9.20;93.80
21799;DHT22;24973;47.178;15.316;2024-02-26T17:09:16;9.20;94.90
21799;DHT22;24973;47.178;15.316;2024-02-26T17:12:06;9.10;94.80
21799;DHT22;24973;47.178;15.316;2024-02-26T17:14:56;9.00;95.40
21799;DHT22;24973;47.178;15.316;2024-02-26T17:17:45;9.00;96.90
21799;DHT22;24973;47.178;15.316;2024-02-26T17:20:34;8.70;97.60
21799;DHT22;24973;47.178;15.316;2024-02-26T17:23:25;8.60;98.10
21799;DHT22;24973;47.178;15.316;2024-02-26T17:26:18;8.50;98.30
21799;DHT22;24973;47.178;15.316;2024-02-26T17:29:08;8.40;99.90
21799;DHT22;24973;47.178;15.316;2024-02-26T17:31:57;8.40;98.40
21799;DHT22;24973;47.178;15.316;2024-02-26T17:34:46;8.40;98.30
21799;DHT22;24973;47.178;15.316;2024-02-26T17:37:36;9.70;99.90
21799;DHT22;24973;47.178;15.316;2024-02-26T17:40:25;8.30;99.90
21799;DHT22;24973;47.178;15.316;2024-02-26T17:43:18;8.20;99.90
21799;DHT22;24973;47.178;15.316;2024-02-26T17:46:09;8.00;99.90
21799;DHT22;24973;47.178;15.316;2024-02-26T17:48:58;7.80;99.90
21799;DHT22;24973;47.178;15.316;2024-02-26T17:51:47;7.90;99.90
21799;DHT22;24973;47.178;15.316;2024-02-26T17:54:36;7.80;99.90
21799;DHT22;24973;47.178;15.316;2024-02-26T17:57:25;7.70;99.90
21799;DHT22;24973;47.178;15.316;2024-02-26T18:00:16;7.70;99.90
21799;DHT22;24973;47.178;15.316;2024-02-26T18:03:05;7.50;99.90
21799;DHT22;24973;47.178;15.316;2024-02-26T18:05:54;7.40;99.90
21799;DHT22;24973;47.178;15.316;2024-02-26T18:08:43;7.40;99.90
21799;DHT22;24973;47.178;15.316;2024-02-26T18:11:32;7.30;99.90
21799;DHT22;24973;47.178;15.316;2024-02-26T18:14:21;7.50;99.90
21799;DHT22;24973;47.178;15.316;2024-02-26T18:17:12;7.30;99.90
21799;DHT22;24973;47.178;15.316;2024-02-26T18:20:02;7.30;99.90
21799;DHT22;24973;47.178;15.316;2024-02-26T18:22:51;7.40;99.90
21799;DHT22;24973;47.178;15.316;2024-02-26T18:25:43;7.40;99.90
21799;DHT22;24973;47.178;15.316;2024-02-26T18:28:32;7.40;99.90
21799;DHT22;24973;47.178;15.316;2024-02-26T18:31:21;6.80;99.90
21799;DHT22;24973;47.178;15.316;2024-02-26T18:34:11;7.40;99.90
21799;DHT22;24973;47.178;15.316;2024-02-26T18:37:01;7.40;99.90
21799;DHT22;24973;47.178;15.316;2024-02-26T18:39:50;7.30;99.90
21799;DHT22;24973;47.178;15.316;2024-02-26T18:42:41;7.30;99.90
21799;DHT22;24973;47.178;15.316;2024-02-26T18:45:30;7.90;99.90
21799;DHT22;24973;47.178;15.316;2024-02-26T18:48:21;7.30;99.90
21799;DHT22;24973;47.178;15.316;2024-02-26T18:51:13;7.20;99.90
21799;DHT22;24973;47.178;15.316;2024-02-26T18:54:01;7.30;99.90
21799;DHT22;24973;47.178;15.316;2024-02-26T18:56:53;7.30;99.90
21799;DHT22;24973;47.178;15.316;2024-02-26T18:59:42;7.20;99.90
21799;DHT22;24973;47.178;15.316;2024-02-26T19:02:33;7.30;99.90
21799;DHT22;24973;47.178;15.316;2024-02-26T19:05:23;7.40;99.90
21799;DHT22;24973;47.178;15.316;2024-02-26T19:08:14;7.40;99.90
21799;DHT22;24973;47.178;15.316;2024-02-26T19:11:06;7.50;99.90
21799;DHT22;24973;47.178;15.316;2024-02-26T19:13:55;7.40;99.90
21799;DHT22;24973;47.178;15.316;2024-02-26T19:16:48;7.40;99.90
21799;DHT22;24973;47.178;15.316;2024-02-26T19:19:37;9.10;99.90
21799;DHT22;24973;47.178;15.316;2024-02-26T19:22:27;7.30;99.90
21799;DHT22;24973;47.178;15.316;2024-02-26T19:25:20;7.20;99.90
21799;DHT22;24973;47.178;15.316;2024-02-26T19:28:09;7.20;99.90
21799;DHT22;24973;47.178;15.316;2024-02-26T19:31:00;7.20;99.90
21799;DHT22;24973;47.178;15.316;2024-02-26T19:33:49;7.30;99.90
21799;DHT22;24973;47.178;15.316;2024-02-26T19:36:38;7.20;99.90
21799;DHT22;24973;47.178;15.316;2024-02-26T19:39:28;7.20;99.90
21799;DHT22;24973;47.178;15.316;2024-02-26T19:42:20;7.00;99.90
21799;DHT22;24973;47.178;15.316;2024-02-26T19:45:09;7.00;99.90
21799;DHT22;24973;47.178;15.316;2024-02-26T19:48:02;7.00;99.90
21799;DHT22;24973;47.178;15.316;2024-02-26T19:50:51;6.70;99.90
21799;DHT22;24973;47.178;15.316;2024-02-26T19:53:41;6.90;99.90
21799;DHT22;24973;47.178;15.316;2024-02-26T19:56:32;6.90;99.90
21799;DHT22;24973;47.178;15.316;2024-02-26T19:59:24;6.90;99.90
21799;DHT22;24973;47.178;15.316;2024-02-26T20:02:14;6.80;99.90
21799;DHT22;24973;47.178;15.316;2024-02-26T20:05:03;6.80;99.90
21799;DHT22;24973;47.178;15.316;2024-02-26T20:07:54;6.70;99.90
21799;DHT22;24973;47.178;15.316;2024-02-26T20:10:43;6.70;99.90
21799;DHT22;24973;47.178;15.316;2024-02-26T20:13:37;6.60;99.90
21799;DHT22;24973;47.178;15.316;2024-02-26T20:16:28;6.60;99.90
21799;DHT22;24973;47.178;15.316;2024-02-26T20:19:17;6.50;99.90
21799;DHT22;24973;47.178;15.316;2024-02-26T20:22:14;6.40;99.90
21799;DHT22;24973;47.178;15.316;2024-02-26T20:25:05;6.40;99.90
21799;DHT22;24973;47.178;15.316;2024-02-26T20:27:57;6.40;99.90
21799;DHT22;24973;47.178;15.316;2024-02-26T20:30:47;6.40;99.90
21799;DHT22;24973;47.178;15.316;2024-02-26T20:33:37;6.40;99.90
21799;DHT22;24973;47.178;15.316;2024-02-26T20:36:27;6.30;99.90
21799;DHT22;24973;47.178;15.316;2024-02-26T20:39:17;6.30;99.90
21799;DHT22;24973;47.178;15.316;2024-02-26T20:42:07;6.20;99.90
21799;DHT22;24973;47.178;15.316;2024-02-26T20:44:56;6.20;99.90
21799;DHT22;24973;47.178;15.316;2024-02-26T20:47:45;6.10;99.90
21799;DHT22;24973;47.178;15.316;2024-02-26T20:50:37;6.10;99.90
21799;DHT22;24973;47.178;15.316;2024-02-26T20:53:26;6.10;99.90
21799;DHT22;24973;47.178;15.316;2024-02-26T20:56:15;6.00;99.90
21799;DHT22;24973;47.178;15.316;2024-02-26T20:59:04;5.80;99.90
21799;DHT22;24973;47.178;15.316;2024-02-26T21:01:54;5.80;99.90
21799;DHT22;24973;47.178;15.316;2024-02-26T21:04:43;5.80;99.90
21799;DHT22;24973;47.178;15.316;2024-02-26T21:07:33;5.70;99.90
21799;DHT22;24973;47.178;15.316;2024-02-26T21:10:22;5.70;99.90
21799;DHT22;24973;47.178;15.316;2024-02-26T21:13:16;5.60;99.90
21799;DHT22;24973;47.178;15.316;2024-02-26T21:16:06;5.60;99.90
21799;DHT22;24973;47.178;15.316;2024-02-26T21:18:55;5.40;99.90
21799;DHT22;24973;47.178;15.316;2024-02-26T21:21:46;5.40;99.90
21799;DHT22;24973;47.178;15.316;2024-02-26T21:24:36;5.30;99.90
21799;DHT22;24973;47.178;15.316;2024-02-26T21:27:25;5.30;99.90
21799;DHT22;24973;47.178;15.316;2024-02-26T21:30:14;5.10;99.90
21799;DHT22;24973;47.178;15.316;2024-02-26T21:33:03;4.90;99.90
21799;DHT22;24973;47.178;15.316;2024-02-26T21:35:53;4.90;99.90
21799;DHT22;24973;47.178;15.316;2024-02-26T21:38:44;4.90;99.90
21799;DHT22;24973;47.178;15.316;2024-02-26T21:41:37;4.90;99.90
21799;DHT22;24973;47.178;15.316;2024-02-26T21:44:26;4.90;99.90
21799;DHT22;24973;47.178;15.316;2024-02-26T21:47:17;4.90;99.90
21799;DHT22;24973;47.178;15.316;2024-02-26T21:50:06;5.00;99.90
21799;DHT22;24973;47.178;15.316;2024-02-26T21:52:56;4.90;99.90
21799;DHT22;24973;47.178;15.316;2024-02-26T21:55:45;4.90;99.90
21799;DHT22;24973;47.178;15.316;2024-02-26T21:58:35;4.70;99.90
21799;DHT22;24973;47.178;15.316;2024-02-26T22:01:24;4.60;99.90
21799;DHT22;24973;47.178;15.316;2024-02-26T22:04:13;4.60;99.90
21799;DHT22;24973;47.178;15.316;2024-02-26T22:07:02;4.50;99.90
21799;DHT22;24973;47.178;15.316;2024-02-26T22:12:40;4.30;99.90
21799;DHT22;24973;47.178;15.316;2024-02-26T22:15:31;4.20;99.90
21799;DHT22;24973;47.178;15.316;2024-02-26T22:18:20;4.10;99.90
21799;DHT22;24973;47.178;15.316;2024-02-26T22:21:09;4.20;99.90
21799;DHT22;24973;47.178;15.316;2024-02-26T22:23:58;4.20;99.90
21799;DHT22;24973;47.178;15.316;2024-02-26T22:26:47;4.20;99.90
21799;DHT22;24973;47.178;15.316;2024-02-26T22:29:36;4.10;99.90
21799;DHT22;24973;47.178;15.316;2024-02-26T22:32:26;4.00;99.90
21799;DHT22;24973;47.178;15.316;2024-02-26T22:35:15;3.90;99.90
21799;DHT22;24973;47.178;15.316;2024-02-26T22:38:04;3.80;99.90
21799;DHT22;24973;47.178;15.316;2024-02-26T22:40:53;3.90;99.90
21799;DHT22;24973;47.178;15.316;2024-02-26T22:43:42;3.90;99.90
21799;DHT22;24973;47.178;15.316;2024-02-26T22:46:31;3.80;99.90
21799;DHT22;24973;47.178;15.316;2024-02-26T22:49:21;3.80;99.90
21799;DHT22;24973;47.178;15.316;2024-02-26T22:52:10;3.80;99.90
21799;DHT22;24973;47.178;15.316;2024-02-26T22:54:59;3.70;99.90
21799;DHT22;24973;47.178;15.316;2024-02-26T22:57:48;3.70;99.90
21799;DHT22;24973;47.178;15.316;2024-02-26T23:00:37;3.70;99.90
21799;DHT22;24973;47.178;15.316;2024-02-26T23:03:27;3.70;99.90
21799;DHT22;24973;47.178;15.316;2024-02-26T23:06:17;3.70;99.90
21799;DHT22;24973;47.178;15.316;2024-02-26T23:09:06;3.70;99.90
21799;DHT22;24973;47.178;15.316;2024-02-26T23:11:55;3.60;99.90
21799;DHT22;24973;47.178;15.316;2024-02-26T23:14:44;3.70;99.90
21799;DHT22;24973;47.178;15.316;2024-02-26T23:17:33;3.60;99.90
21799;DHT22;24973;47.178;15.316;2024-02-26T23:20:22;3.50;99.90
21799;DHT22;24973;47.178;15.316;2024-02-26T23:23:13;3.40;99.90
21799;DHT22;24973;47.178;15.316;2024-02-26T23:26:02;3.30;99.90
21799;DHT22;24973;47.178;15.316;2024-02-26T23:28:51;3.20;99.90
21799;DHT22;24973;47.178;15.316;2024-02-26T23:31:40;3.10;99.90
21799;DHT22;24973;47.178;15.316;2024-02-26T23:34:31;2.80;99.90
21799;DHT22;24973;47.178;15.316;2024-02-26T23:37:20;2.70;99.90
21799;DHT22;24973;47.178;15.316;2024-02-26T23:40:11;2.70;99.90
21799;DHT22;24973;47.178;15.316;2024-02-26T23:43:00;2.60;99.90
21799;DHT22;24973;47.178;15.316;2024-02-26T23:45:49;2.60;99.90
21799;DHT22;24973;47.178;15.316;2024-02-26T23:48:38;2.60;99.90
21799;DHT22;24973;47.178;15.316;2024-02-26T23:51:27;2.60;99.90
21799;DHT22;24973;47.178;15.316;2024-02-26T23:54:16;2.70;99.90
21799;DHT22;24973;47.178;15.316;2024-02-26T23:57:06;2.80;99.90
21799;DHT22;24973;47.178;15.316;2024-02-26T23:59:55;2.90;99.90
